Impacts TAF Board
For situational awareness. Not to be used for flight planning purposes.
IDs:

KMLU - Monroe Rgnl, LA, US

Issued at 0540 UTC 18 Sep 2021
Updated at 0752 UTC 18 Sep 2021
Potential Impact None Slight Moderate High
Time0653Z 18/08Z 18/09Z 18/10Z 18/11Z 18/12Z 18/13Z 18/14Z 18/15Z 18/16Z 18/17Z 18/18Z 18/19Z 18/20Z>>
Type OBS PRVL PRVL PRVL PRVL PRVL PRVL PRVL PRVL PRVL PRVL PRVL PRVL PRVL
VIS 10 5 5 5 5 5 5 5 6 6 >6 >6 >6 >6
CIG -- 5 5 5 5 5 5 5 7 7 15 15 15 30
Cover SCT OVC OVC OVC OVC OVC OVC OVC OVC OVC BKN BKN BKN BKN
FltCat VFR IFR IFR IFR IFR IFR IFR IFR IFR IFR MVFR MVFR MVFR MVFR
WX -- BR BR BR BR BR BR BR BR VCSH BR VCSH VCSH VCSH VCSH VCSH
WDir VRB VRB VRB VRB VRB VRB VRB VRB 160 160 160 160 160 160
WSpd 0 3 3 3 3 3 3 3 4 4 5 5 5 5
WGst -- -- -- -- -- -- -- -- -- -- -- -- -- --
Raw TAF
KMLU 180540Z 1806/1906 VRB03KT P6SM VCSH FEW040 BKN060 BKN090
  FM180700 VRB03KT 5SM BR OVC005
  FM181500 16004KT 6SM BR VCSH OVC007
  FM181700 16005KT P6SM VCSH BKN015
  FM182000 16005KT P6SM VCSH BKN030
  FM182200 16005KT 5SM SHRA VCTS BKN035CB
  FM190300 VRB03KT P6SM VCSH BKN015


Raw METAR
KMLU 180653Z AUTO 00000KT 10SM FEW003 SCT120 24/24 A2997 RMK AO2 SLP147 T02390239
KMLU 180646Z AUTO 00000KT 10SM FEW004 BKN120 24/24 A2997 RMK AO2 T02390239
KMLU 180553Z AUTO VRB03KT 10SM FEW032 24/23 A2998 RMK AO2 SLP150 60049 T02390233 10272 20233 402890233 58004
KMLU 180453Z AUTO VRB03KT 10SM FEW039 BKN060 BKN085 24/24 A2999 RMK AO2 RAE13 SLP152 P0000 T02390239

METAR Board
Radar Display
Forecast Discussion
For situational awareness. Not to be used for flight planning purposes.